Time;durP1;ratioP1;P1;durP2;ratioP2;P2;SDS_P1;SDS_P2;PMS_P1;PMS_P2;Temp;Humidity;BMP_temperature;BMP_pressure;BME280_temperature;BME280_humidity;BME280_pressure;Samples;Min_cycle;Max_cycle;Signal;HPM_P1;HPM_P2
2022/06/16 00:00:49;;;;;;;7.72;3.65;;;21.80;88.70;;;;;;6940118;28;20080;-80
2022/06/16 00:04:12;;;;;;;6.25;4.00;;;21.70;88.80;;;;;;6921720;28;20084;-79
2022/06/16 00:07:35;;;;;;;6.68;3.90;;;21.70;90.00;;;;;;6941062;28;20049;-78
2022/06/16 00:14:37;;;;;;;6.85;3.72;;;21.70;89.40;;;;;;6943969;28;20483;-80
2022/06/16 00:17:59;;;;;;;6.03;3.72;;;21.70;89.90;;;;;;6939695;28;20049;-79
2022/06/16 00:21:22;;;;;;;6.43;3.92;;;21.60;90.00;;;;;;6943063;28;20046;-81
2022/06/16 00:24:45;;;;;;;8.48;3.90;;;21.50;90.20;;;;;;6942530;28;20075;-78
2022/06/16 00:28:07;;;;;;;6.22;3.85;;;21.30;90.70;;;;;;6928550;28;20048;-79
2022/06/16 00:31:30;;;;;;;6.78;3.70;;;21.20;90.80;;;;;;6941581;28;20053;-77
2022/06/16 00:34:52;;;;;;;5.85;3.95;;;21.10;90.70;;;;;;6942086;28;20092;-79
2022/06/16 00:38:14;;;;;;;6.18;3.35;;;21.10;91.00;;;;;;6940979;28;20423;-80
2022/06/16 00:41:37;;;;;;;5.85;3.63;;;21.10;91.00;;;;;;6942108;28;20045;-79
2022/06/16 00:44:59;;;;;;;6.45;3.85;;;21.00;91.20;;;;;;6941841;28;20053;-80
2022/06/16 00:48:26;;;;;;;6.93;3.60;;;21.00;91.60;;;;;;6939882;28;20100;-78
2022/06/16 00:51:54;;;;;;;6.80;3.80;;;21.00;91.70;;;;;;6942012;28;20057;-78
2022/06/16 00:55:17;;;;;;;6.57;3.92;;;20.90;91.50;;;;;;6942032;28;20511;-79
2022/06/16 00:58:45;;;;;;;5.15;3.50;;;20.80;91.30;;;;;;6941058;28;20111;-80
2022/06/16 01:02:09;;;;;;;7.05;3.60;;;20.70;91.40;;;;;;6944504;28;20123;-79
2022/06/16 01:05:31;;;;;;;6.32;3.67;;;20.60;91.30;;;;;;6947000;28;20488;-79
2022/06/16 01:08:58;;;;;;;5.90;3.42;;;20.60;91.20;;;;;;6944920;28;20041;-79
2022/06/16 01:16:45;;;;;;;5.65;3.20;;;20.60;91.10;;;;;;6946702;28;20053;-79
2022/06/16 01:20:19;;;;;;;8.27;3.65;;;20.60;91.10;;;;;;6944094;28;20049;-78
2022/06/16 01:24:27;;;;;;;6.47;3.75;;;20.60;91.60;;;;;;6946464;28;20049;-79
2022/06/16 01:28:14;;;;;;;8.25;3.65;;;20.50;91.50;;;;;;6944020;28;20045;-77
2022/06/16 01:31:47;;;;;;;6.50;3.65;;;20.40;92.40;;;;;;6946449;28;20505;-81
2022/06/16 01:35:14;;;;;;;;;;;20.20;93.10;;;;;;6944990;28;20049;-77
2022/06/16 01:38:47;;;;;;;7.32;3.88;;;20.00;93.70;;;;;;6944767;28;19966;-79
2022/06/16 01:42:15;;;;;;;6.90;3.80;;;19.90;94.10;;;;;;6946083;28;20110;-78
2022/06/16 01:45:43;;;;;;;6.95;3.72;;;20.00;94.20;;;;;;6945865;28;20096;-78
2022/06/16 01:49:13;;;;;;;7.32;3.60;;;20.00;94.40;;;;;;6943705;28;20072;-79
2022/06/16 01:52:42;;;;;;;6.85;3.38;;;19.90;94.20;;;;;;6943891;28;20088;-79
2022/06/16 01:56:12;;;;;;;5.75;3.60;;;19.90;94.50;;;;;;6945618;28;20073;-79
2022/06/16 01:59:41;;;;;;;6.85;3.72;;;19.90;94.70;;;;;;6944271;28;20061;-78
2022/06/16 02:03:07;;;;;;;6.38;3.63;;;19.90;94.60;;;;;;6945310;28;20052;-79
2022/06/16 02:06:35;;;;;;;6.45;3.85;;;19.80;94.10;;;;;;6943822;28;20049;-80
2022/06/16 02:10:00;;;;;;;6.75;3.53;;;19.70;94.60;;;;;;6944162;28;20049;-78
2022/06/16 02:13:28;;;;;;;7.53;3.25;;;19.70;95.00;;;;;;6944812;28;20057;-79
2022/06/16 02:16:52;;;;;;;6.07;3.50;;;19.70;94.80;;;;;;6943842;28;20046;-79
2022/06/16 02:20:14;;;;;;;7.20;3.40;;;19.80;94.80;;;;;;6945023;28;20096;-80
2022/06/16 02:23:38;;;;;;;7.00;3.65;;;19.80;94.40;;;;;;6944770;28;20041;-78
2022/06/16 02:27:01;;;;;;;7.22;3.80;;;19.80;94.30;;;;;;6939438;28;20538;-78
2022/06/16 02:30:32;;;;;;;7.35;3.80;;;19.70;94.20;;;;;;6944889;28;20085;-77
2022/06/16 02:34:08;;;;;;;6.75;3.47;;;19.70;94.70;;;;;;6944540;28;20084;-76
2022/06/16 02:37:46;;;;;;;7.57;3.85;;;19.40;95.20;;;;;;6942530;28;20056;-80
2022/06/16 02:41:21;;;;;;;6.03;3.60;;;19.10;95.50;;;;;;6944479;28;20049;-79
2022/06/16 02:44:52;;;;;;;5.13;3.70;;;18.90;95.90;;;;;;6942159;28;20045;-80
2022/06/16 02:48:19;;;;;;;5.95;3.97;;;18.80;96.10;;;;;;6943154;28;20180;-77
2022/06/16 02:51:51;;;;;;;6.07;3.42;;;18.80;96.10;;;;;;6944046;28;20057;-79
2022/06/16 02:55:22;;;;;;;5.87;3.50;;;19.00;96.30;;;;;;6944241;28;20072;-78
2022/06/16 02:58:48;;;;;;;5.45;3.60;;;19.10;96.20;;;;;;6941648;28;20081;-78
2022/06/16 03:02:16;;;;;;;6.32;3.70;;;19.10;96.40;;;;;;6910388;28;20487;-78
2022/06/16 03:05:38;;;;;;;5.47;3.80;;;19.10;96.20;;;;;;6943092;28;20056;-79
2022/06/16 03:09:01;;;;;;;5.68;3.83;;;19.10;96.40;;;;;;6942407;28;20049;-78
2022/06/16 03:12:23;;;;;;;7.05;3.83;;;19.10;96.40;;;;;;6943385;28;20064;-77
2022/06/16 03:15:48;;;;;;;6.25;3.60;;;19.10;96.30;;;;;;6942310;28;20439;-77
2022/06/16 03:19:10;;;;;;;5.65;3.67;;;19.10;96.10;;;;;;6942266;28;20096;-78
2022/06/16 03:22:32;;;;;;;9.13;3.67;;;19.00;95.90;;;;;;6943230;28;20100;-79
2022/06/16 03:25:55;;;;;;;5.38;3.75;;;19.10;95.70;;;;;;6943149;28;20479;-79
2022/06/16 03:29:17;;;;;;;7.72;3.65;;;19.10;95.60;;;;;;6941451;28;20472;-79
2022/06/16 03:32:40;;;;;;;6.90;3.17;;;19.10;95.30;;;;;;6941222;28;20052;-78
2022/06/16 03:36:03;;;;;;;7.15;3.45;;;19.00;95.20;;;;;;6943009;28;20061;-78
2022/06/16 03:39:25;;;;;;;;;;;19.00;95.00;;;;;;6923159;28;20510;-78
2022/06/16 03:42:49;;;;;;;;;;;18.90;95.50;;;;;;6916259;28;20390;-80
2022/06/16 03:46:12;;;;;;;5.43;3.47;;;18.90;95.80;;;;;;6915464;28;19921;-79
2022/06/16 03:49:35;;;;;;;5.47;3.72;;;18.80;96.00;;;;;;6939498;28;20041;-77
2022/06/16 03:52:58;;;;;;;7.57;3.92;;;18.70;96.50;;;;;;6942826;28;20072;-79
2022/06/16 03:56:20;;;;;;;6.00;3.92;;;18.70;95.90;;;;;;6941317;28;20077;-80
2022/06/16 03:59:42;;;;;;;9.43;4.10;;;18.70;95.70;;;;;;6939798;28;20056;-79
2022/06/16 04:06:46;;;;;;;6.40;3.83;;;18.80;94.60;;;;;;6941863;28;20049;-79
2022/06/16 04:10:11;;;;;;;6.47;3.47;;;18.90;94.00;;;;;;6941316;28;20076;-81
2022/06/16 04:13:33;;;;;;;5.35;3.50;;;19.00;94.40;;;;;;6942261;28;20053;-78
2022/06/16 04:16:58;;;;;;;8.85;3.80;;;19.00;94.00;;;;;;6943511;28;20045;-80
2022/06/16 04:20:21;;;;;;;7.13;4.13;;;18.90;95.50;;;;;;6943262;28;20061;-79
2022/06/16 04:23:45;;;;;;;6.22;3.35;;;18.80;95.40;;;;;;6940601;28;20045;-81
2022/06/16 04:27:07;;;;;;;7.65;3.80;;;18.80;94.60;;;;;;6942589;28;20041;-80
2022/06/16 04:30:30;;;;;;;7.22;3.83;;;18.80;94.10;;;;;;6944219;28;20054;-79
2022/06/16 04:33:52;;;;;;;5.70;3.40;;;18.90;94.20;;;;;;6941869;28;20041;-80
2022/06/16 04:37:14;;;;;;;6.78;3.60;;;19.00;93.90;;;;;;6947867;28;20445;-79
2022/06/16 04:40:38;;;;;;;7.88;3.70;;;19.10;93.90;;;;;;6948196;28;20084;-79
2022/06/16 04:44:00;;;;;;;6.72;3.95;;;19.20;93.50;;;;;;6945938;28;20049;-77
2022/06/16 04:47:22;;;;;;;6.43;3.78;;;19.20;93.50;;;;;;6947621;28;20057;-79
2022/06/16 04:50:44;;;;;;;6.00;3.17;;;19.30;93.50;;;;;;6953611;28;20113;-78
2022/06/16 04:54:06;;;;;;;5.68;3.70;;;19.30;93.60;;;;;;6944873;28;20382;-78
2022/06/16 04:57:30;;;;;;;6.72;3.75;;;19.20;93.40;;;;;;6948068;28;20041;-81
2022/06/16 05:00:53;;;;;;;6.57;3.65;;;19.30;93.60;;;;;;6941865;28;20060;-79
2022/06/16 05:04:15;;;;;;;7.38;3.40;;;19.40;93.70;;;;;;6945501;28;20091;-78
2022/06/16 05:07:37;;;;;;;6.60;3.70;;;19.60;93.70;;;;;;6945610;28;20088;-79
2022/06/16 05:10:59;;;;;;;7.10;3.53;;;19.60;93.50;;;;;;6942744;28;20674;-80
2022/06/16 05:14:23;;;;;;;5.25;3.38;;;19.70;93.30;;;;;;6934125;28;20088;-79
2022/06/16 05:17:45;;;;;;;6.10;3.67;;;19.60;93.70;;;;;;6916349;28;20092;-80
2022/06/16 05:21:10;;;;;;;6.55;3.70;;;19.60;93.70;;;;;;6919133;28;20085;-79
2022/06/16 05:24:33;;;;;;;7.05;3.88;;;19.60;93.50;;;;;;6916733;28;20114;-80
2022/06/16 05:27:55;;;;;;;5.65;3.63;;;19.60;93.20;;;;;;6946285;28;20049;-79
2022/06/16 05:31:19;;;;;;;;;;;19.70;93.00;;;;;;6918517;28;20136;-80
2022/06/16 05:34:42;;;;;;;6.95;3.78;;;19.80;93.20;;;;;;6935359;28;19960;-81
2022/06/16 05:38:05;;;;;;;5.63;3.80;;;20.00;93.10;;;;;;6936944;28;20598;-81
2022/06/16 05:41:27;;;;;;;8.30;3.70;;;20.10;92.50;;;;;;6945837;28;20053;-82
2022/06/16 05:44:49;;;;;;;5.88;3.40;;;20.30;92.50;;;;;;6940368;28;20049;-81
2022/06/16 05:48:13;;;;;;;5.65;3.58;;;20.30;92.30;;;;;;6936275;28;20045;-78
2022/06/16 05:51:35;;;;;;;4.75;3.28;;;20.30;92.60;;;;;;6936317;28;20451;-84
2022/06/16 05:54:57;;;;;;;7.85;3.83;;;20.40;93.20;;;;;;6927704;28;20065;-83
2022/06/16 05:58:19;;;;;;;7.95;4.10;;;20.40;93.20;;;;;;6929478;28;20046;-83
2022/06/16 06:01:41;;;;;;;5.72;3.85;;;20.50;92.70;;;;;;6944290;28;20069;-83
2022/06/16 06:05:07;;;;;;;7.95;4.47;;;20.50;93.00;;;;;;6938550;28;20079;-84
2022/06/16 06:19:44;;;;;;;6.88;3.95;;;20.60;92.80;;;;;;6929115;28;20081;-83
2022/06/16 06:23:08;;;;;;;7.07;3.50;;;20.60;92.60;;;;;;6944087;28;20076;-84
2022/06/16 06:26:30;;;;;;;5.93;3.67;;;20.70;92.40;;;;;;6915780;28;20506;-85
2022/06/16 06:29:52;;;;;;;8.73;3.60;;;20.80;92.30;;;;;;6917221;28;20385;-84
2022/06/16 06:33:14;;;;;;;5.50;3.40;;;20.80;92.20;;;;;;6937211;28;20479;-80
2022/06/16 06:36:36;;;;;;;6.57;3.65;;;20.90;92.30;;;;;;6931063;28;20046;-82
2022/06/16 06:40:00;;;;;;;7.97;3.88;;;20.90;92.10;;;;;;6899743;28;20483;-80
2022/06/16 06:43:22;;;;;;;7.20;3.60;;;20.90;91.30;;;;;;6916943;28;20053;-81
2022/06/16 06:46:44;;;;;;;6.07;3.60;;;21.00;91.70;;;;;;6938408;28;20462;-79
2022/06/16 06:50:07;;;;;;;6.90;3.80;;;21.20;91.70;;;;;;6939281;28;20420;-78
2022/06/16 06:53:29;;;;;;;7.72;3.80;;;21.20;91.40;;;;;;6920482;28;20049;-82
2022/06/16 06:56:53;;;;;;;7.65;4.10;;;21.20;91.10;;;;;;6919862;28;20042;-80
2022/06/16 07:00:18;;;;;;;7.25;3.90;;;21.30;91.40;;;;;;6924989;28;20049;-81
2022/06/16 07:03:40;;;;;;;8.38;3.80;;;21.40;90.90;;;;;;6923524;28;20061;-82
2022/06/16 07:07:02;;;;;;;7.28;3.78;;;21.50;91.20;;;;;;6941939;28;20092;-79
2022/06/16 07:10:24;;;;;;;5.47;3.22;;;21.70;91.30;;;;;;6942431;28;20045;-77
2022/06/16 07:13:47;;;;;;;6.85;3.40;;;21.80;90.60;;;;;;6943456;28;20114;-78
2022/06/16 07:17:10;;;;;;;5.97;3.38;;;21.90;90.70;;;;;;6943588;28;20056;-78
2022/06/16 07:20:32;;;;;;;6.95;3.70;;;22.10;90.20;;;;;;6941424;28;20081;-78
2022/06/16 07:23:54;;;;;;;7.20;3.30;;;22.10;90.20;;;;;;6941890;28;20110;-79
2022/06/16 07:27:17;;;;;;;6.40;3.53;;;22.20;90.80;;;;;;6943094;28;20042;-77
2022/06/16 07:30:41;;;;;;;8.20;3.53;;;22.20;90.00;;;;;;6943031;28;20049;-78
2022/06/16 07:34:03;;;;;;;6.95;3.25;;;22.30;90.10;;;;;;6939826;28;20049;-78
2022/06/16 07:37:25;;;;;;;5.88;3.45;;;22.30;90.10;;;;;;6942933;28;20084;-77
2022/06/16 07:40:47;;;;;;;5.05;3.50;;;22.40;89.60;;;;;;6927082;28;20068;-81
2022/06/16 07:44:12;;;;;;;5.95;3.70;;;22.40;89.40;;;;;;6936837;28;20053;-80
2022/06/16 07:47:35;;;;;;;8.77;3.50;;;22.50;90.10;;;;;;6942184;28;20343;-78
2022/06/16 07:50:58;;;;;;;8.00;3.72;;;22.60;90.10;;;;;;6942779;28;20085;-77
2022/06/16 07:54:20;;;;;;;7.65;3.20;;;22.70;89.90;;;;;;6941852;28;20067;-79
2022/06/16 07:57:45;;;;;;;5.47;3.63;;;22.80;90.00;;;;;;6942616;28;20049;-77
2022/06/16 08:01:08;;;;;;;6.07;3.53;;;22.80;90.20;;;;;;6942609;28;20064;-78
2022/06/16 08:04:31;;;;;;;5.30;3.40;;;22.90;90.30;;;;;;6941570;28;20136;-77
2022/06/16 08:07:53;;;;;;;4.85;3.17;;;23.00;89.40;;;;;;6942556;28;20046;-79
2022/06/16 08:14:51;;;;;;;5.55;3.60;;;23.10;89.30;;;;;;6914810;28;20057;-78
2022/06/16 08:18:16;;;;;;;9.07;3.97;;;23.20;90.00;;;;;;6933398;28;20046;-79
2022/06/16 08:21:40;;;;;;;6.45;3.70;;;23.30;88.40;;;;;;6942290;28;20077;-78
2022/06/16 08:25:02;;;;;;;6.55;4.20;;;23.40;87.50;;;;;;6931455;28;20053;-79
2022/06/16 08:28:24;;;;;;;;;;;23.50;87.30;;;;;;6913363;28;20488;-84
2022/06/16 08:31:46;;;;;;;6.03;3.83;;;23.50;84.10;;;;;;6918694;28;20366;-78
2022/06/16 08:35:09;;;;;;;6.47;3.50;;;23.60;84.70;;;;;;6937697;28;20491;-79
2022/06/16 08:38:32;;;;;;;6.18;3.55;;;23.60;83.30;;;;;;6918219;28;20050;-78
2022/06/16 08:42:02;;;;;;;7.53;3.70;;;23.70;81.50;;;;;;6915564;28;20097;-79
2022/06/16 08:45:32;;;;;;;5.63;3.55;;;23.70;84.70;;;;;;6906074;28;20041;-77
2022/06/16 08:49:03;;;;;;;6.60;3.30;;;23.80;85.70;;;;;;6908209;28;20049;-80
2022/06/16 08:52:36;;;;;;;7.05;3.50;;;23.80;84.60;;;;;;6941497;28;20061;-85
2022/06/16 08:56:06;;;;;;;8.07;3.50;;;23.90;83.50;;;;;;6932228;28;20045;-76
2022/06/16 08:59:38;;;;;;;5.50;3.60;;;23.90;80.40;;;;;;6915079;28;20118;-80
2022/06/16 09:03:08;;;;;;;7.63;3.50;;;24.00;79.10;;;;;;6943466;28;20043;-77
2022/06/16 09:06:41;;;;;;;5.25;2.90;;;24.00;78.70;;;;;;6944108;28;20488;-83
2022/06/16 09:10:23;;;;;;;5.10;3.38;;;24.10;77.40;;;;;;6926095;28;20136;-79
2022/06/16 09:14:20;;;;;;;7.05;3.83;;;24.10;74.10;;;;;;6939731;28;20057;-79
2022/06/16 09:18:07;;;;;;;6.85;3.55;;;24.10;73.20;;;;;;6887004;28;20500;-77
2022/06/16 09:21:42;;;;;;;6.53;3.42;;;24.20;73.00;;;;;;6930993;28;20415;-77
2022/06/16 09:25:36;;;;;;;7.55;3.25;;;24.20;73.80;;;;;;6946729;28;20091;-78
2022/06/16 09:29:06;;;;;;;15.57;6.18;;;24.20;76.10;;;;;;6937752;28;20070;-76
2022/06/16 09:32:34;;;;;;;7.50;4.18;;;24.30;76.60;;;;;;6932772;28;20109;-78
2022/06/16 09:36:03;;;;;;;5.75;3.60;;;24.40;74.70;;;;;;6946396;28;20111;-77
2022/06/16 09:39:31;;;;;;;8.23;3.60;;;24.40;75.50;;;;;;6943635;28;20077;-76
2022/06/16 09:43:03;;;;;;;4.93;3.50;;;24.50;75.10;;;;;;6945880;28;20054;-77
2022/06/16 09:46:32;;;;;;;5.97;3.65;;;24.60;75.70;;;;;;6944474;28;20057;-78
2022/06/16 09:50:04;;;;;;;7.00;3.80;;;24.60;76.20;;;;;;6944088;28;20407;-78
2022/06/16 09:53:36;;;;;;;;;;;24.80;76.40;;;;;;6948013;28;20136;-77
2022/06/16 09:57:06;;;;;;;6.72;3.35;;;24.90;74.10;;;;;;6925780;28;19925;-76
2022/06/16 10:00:33;;;;;;;6.95;3.05;;;24.90;69.20;;;;;;6920907;28;20438;-77
2022/06/16 10:04:01;;;;;;;6.07;3.13;;;25.00;68.50;;;;;;6932394;28;20591;-79
2022/06/16 10:07:30;;;;;;;6.82;2.90;;;25.10;68.60;;;;;;6942796;28;20046;-77
2022/06/16 10:11:03;;;;;;;6.35;3.20;;;25.20;67.40;;;;;;6945808;28;20084;-78
2022/06/16 10:14:31;;;;;;;6.53;3.00;;;25.30;68.40;;;;;;6948615;28;20053;-79
2022/06/16 10:17:57;;;;;;;7.10;3.10;;;25.30;65.90;;;;;;6949907;28;20070;-77
2022/06/16 10:21:21;;;;;;;5.60;2.83;;;25.40;66.20;;;;;;6948131;28;20053;-78
2022/06/16 10:24:57;;;;;;;6.10;3.17;;;25.50;66.60;;;;;;6945865;28;20045;-78
2022/06/16 10:28:28;;;;;;;5.57;2.75;;;25.50;65.60;;;;;;6939666;28;20053;-79
2022/06/16 10:31:53;;;;;;;5.33;2.90;;;25.40;64.20;;;;;;6949952;28;20403;-83
2022/06/16 10:35:21;;;;;;;7.50;2.95;;;25.50;64.50;;;;;;6966405;28;20045;-85
2022/06/16 10:39:04;;;;;;;8.38;3.08;;;25.70;64.30;;;;;;6953452;28;20471;-83
2022/06/16 10:42:31;;;;;;;6.43;3.28;;;25.80;66.10;;;;;;6938475;28;20488;-82
2022/06/16 10:46:04;;;;;;;6.70;2.83;;;25.90;64.00;;;;;;6920418;28;20484;-85
2022/06/16 10:49:30;;;;;;;5.40;2.80;;;25.90;63.10;;;;;;6922537;28;20152;-81
2022/06/16 10:52:58;;;;;;;5.55;2.50;;;26.00;62.10;;;;;;6931810;28;20082;-77
2022/06/16 10:56:26;;;;;;;6.50;3.00;;;25.90;62.40;;;;;;6926533;28;20511;-78
2022/06/16 10:59:52;;;;;;;5.43;3.03;;;26.00;63.50;;;;;;6923590;28;20053;-79
2022/06/16 11:03:18;;;;;;;5.10;2.88;;;26.10;63.40;;;;;;6939289;28;20084;-79
2022/06/16 11:06:47;;;;;;;6.32;3.00;;;26.20;63.10;;;;;;6940236;28;20576;-78
2022/06/16 11:10:15;;;;;;;5.55;3.17;;;26.30;62.90;;;;;;6940096;28;20426;-78
2022/06/16 11:13:48;;;;;;;6.22;2.90;;;26.30;63.30;;;;;;6937770;28;20097;-79
2022/06/16 11:17:12;;;;;;;5.68;2.80;;;26.40;63.30;;;;;;6936425;28;20084;-79
2022/06/16 11:20:39;;;;;;;6.90;3.20;;;26.40;62.70;;;;;;6940381;28;20092;-79
2022/06/16 11:24:04;;;;;;;6.13;2.80;;;26.50;63.30;;;;;;6939000;28;20053;-77
2022/06/16 11:27:28;;;;;;;6.95;2.80;;;26.50;63.30;;;;;;6939188;28;20084;-80
2022/06/16 11:31:06;;;;;;;6.90;3.00;;;26.60;62.30;;;;;;6939388;28;20184;-80
2022/06/16 11:34:29;;;;;;;5.60;3.30;;;26.60;63.30;;;;;;6935023;28;20185;-81
2022/06/16 11:37:57;;;;;;;6.30;2.85;;;26.60;62.30;;;;;;6930693;28;20085;-81
2022/06/16 11:41:22;;;;;;;6.28;2.90;;;26.70;62.40;;;;;;6920906;28;20092;-80
2022/06/16 11:44:58;;;;;;;5.63;2.78;;;26.70;63.10;;;;;;6918479;28;20073;-80
2022/06/16 11:48:32;;;;;;;5.07;2.58;;;26.80;63.40;;;;;;6918816;28;20393;-80
2022/06/16 11:52:16;;;;;;;6.38;3.10;;;26.90;62.80;;;;;;6932767;28;20053;-81
2022/06/16 11:55:46;;;;;;;6.55;2.85;;;27.00;63.30;;;;;;6940437;28;20042;-80
2022/06/16 11:59:43;;;;;;;7.85;3.13;;;27.00;63.40;;;;;;6939123;28;20073;-80
2022/06/16 12:03:52;;;;;;;6.45;3.03;;;27.00;62.30;;;;;;6942815;28;20080;-79
2022/06/16 12:07:56;;;;;;;5.07;2.90;;;27.10;62.90;;;;;;6939179;28;20045;-79
2022/06/16 12:11:28;;;;;;;5.53;2.55;;;27.20;62.60;;;;;;6917178;28;20041;-81
2022/06/16 12:15:00;;;;;;;5.05;2.65;;;27.20;59.60;;;;;;6915104;28;20389;-81
2022/06/16 12:18:48;;;;;;;4.43;2.80;;;27.20;60.90;;;;;;6913089;28;20073;-80
2022/06/16 12:22:20;;;;;;;4.68;2.63;;;27.20;60.60;;;;;;6914887;28;20499;-80
2022/06/16 12:25:51;;;;;;;7.57;2.92;;;27.50;60.90;;;;;;6914531;28;20045;-81
2022/06/16 12:29:31;;;;;;;6.05;3.13;;;27.40;59.90;;;;;;6896933;28;20046;-80
2022/06/16 12:33:02;;;;;;;5.63;2.80;;;27.40;60.80;;;;;;6915079;28;20069;-80
2022/06/16 12:36:28;;;;;;;8.50;2.88;;;27.40;59.50;;;;;;6913393;28;20152;-82
2022/06/16 12:39:56;;;;;;;5.38;2.65;;;27.50;60.10;;;;;;6911254;28;20045;-79
2022/06/16 12:43:25;;;;;;;6.63;2.78;;;27.60;60.40;;;;;;6914884;28;20057;-81
2022/06/16 12:46:53;;;;;;;6.28;2.83;;;27.90;60.30;;;;;;6915168;28;20050;-81
2022/06/16 12:50:22;;;;;;;4.82;2.80;;;28.00;59.30;;;;;;6913805;28;20139;-81
2022/06/16 12:53:52;;;;;;;4.97;2.88;;;28.10;58.60;;;;;;6914883;28;20088;-80
2022/06/16 12:57:20;;;;;;;6.72;2.50;;;28.20;57.40;;;;;;6903435;28;20053;-79
2022/06/16 13:00:47;;;;;;;6.68;2.78;;;28.40;56.60;;;;;;6917599;28;20077;-81
2022/06/16 13:04:15;;;;;;;7.82;2.50;;;28.50;56.70;;;;;;6905426;28;20088;-79
2022/06/16 13:07:43;;;;;;;4.90;2.58;;;28.60;55.30;;;;;;6919673;28;20057;-81
2022/06/16 13:11:13;;;;;;;7.20;2.88;;;28.70;55.10;;;;;;6919537;28;20081;-79
2022/06/16 13:14:41;;;;;;;4.53;2.28;;;28.80;56.30;;;;;;6943952;28;20084;-80
2022/06/16 13:18:12;;;;;;;8.48;3.97;;;28.90;55.30;;;;;;6947247;28;20045;-79
2022/06/16 13:21:42;;;;;;;6.32;2.58;;;29.00;54.70;;;;;;6942323;28;20037;-81
2022/06/16 13:25:08;;;;;;;5.40;2.17;;;29.20;53.00;;;;;;6932139;28;20081;-81
2022/06/16 13:28:37;;;;;;;5.60;2.75;;;29.20;52.70;;;;;;6942432;28;20052;-81
2022/06/16 13:32:03;;;;;;;7.57;2.38;;;29.20;51.70;;;;;;6946590;28;20392;-81
2022/06/16 13:35:51;;;;;;;4.13;2.30;;;29.20;49.90;;;;;;6931230;28;20061;-80
2022/06/16 13:39:56;;;;;;;5.60;2.30;;;29.20;49.60;;;;;;6919514;28;20088;-81
2022/06/16 13:43:20;;;;;;;5.55;2.42;;;29.60;49.40;;;;;;6919064;28;20054;-81
2022/06/16 13:47:20;;;;;;;5.38;2.15;;;29.70;48.60;;;;;;6935713;28;20049;-79
2022/06/16 13:50:46;;;;;;;6.03;2.30;;;29.80;50.00;;;;;;6902891;28;20094;-82
2022/06/16 13:54:09;;;;;;;5.05;2.35;;;29.80;49.60;;;;;;6917485;28;20463;-83
2022/06/16 13:57:33;;;;;;;6.75;3.55;;;30.10;49.30;;;;;;6928992;28;20524;-82
2022/06/16 14:01:09;;;;;;;6.80;2.13;;;30.20;48.50;;;;;;6926158;28;20080;-80
2022/06/16 14:04:34;;;;;;;4.22;2.35;;;30.30;48.00;;;;;;6938932;28;20499;-83
2022/06/16 14:08:01;;;;;;;6.35;2.30;;;30.30;48.20;;;;;;6915513;28;20050;-76
2022/06/16 14:11:26;;;;;;;7.25;2.15;;;30.30;49.30;;;;;;6939851;28;20079;-78
2022/06/16 14:15:11;;;;;;;4.72;2.33;;;30.40;49.40;;;;;;6946880;28;20050;-81
2022/06/16 14:19:05;;;;;;;5.55;2.10;;;30.70;47.80;;;;;;6959594;28;20049;-84
2022/06/16 14:22:30;;;;;;;6.25;2.20;;;30.70;46.40;;;;;;6948615;28;20055;-82
2022/06/16 14:25:58;;;;;;;6.65;2.40;;;30.50;46.50;;;;;;6896126;28;20051;-83
2022/06/16 14:29:24;;;;;;;7.57;2.20;;;30.70;47.10;;;;;;6902881;28;20132;-81
2022/06/16 14:32:53;;;;;;;4.60;2.20;;;31.00;46.40;;;;;;6943051;28;20055;-83
2022/06/16 14:36:23;;;;;;;4.68;2.00;;;31.10;45.90;;;;;;6941597;28;20529;-77
2022/06/16 14:39:52;;;;;;;4.68;2.00;;;31.10;45.10;;;;;;6942455;28;20517;-76
2022/06/16 14:43:22;;;;;;;5.30;2.20;;;30.90;44.90;;;;;;6940045;28;20095;-78
2022/06/16 14:46:54;;;;;;;6.07;2.10;;;30.70;44.60;;;;;;6917585;28;20085;-78
2022/06/16 14:50:22;;;;;;;4.18;2.00;;;30.80;45.40;;;;;;6919322;28;20499;-79
2022/06/16 14:53:53;;;;;;;6.95;2.53;;;30.90;45.60;;;;;;6901853;28;20054;-78
2022/06/16 14:57:22;;;;;;;5.00;2.17;;;30.90;46.20;;;;;;6911323;28;20050;-78
2022/06/16 15:00:48;;;;;;;5.50;2.15;;;31.00;47.00;;;;;;6928012;28;20053;-78
2022/06/16 15:04:13;;;;;;;5.10;2.22;;;31.00;46.80;;;;;;6941367;28;20573;-79
2022/06/16 15:07:36;;;;;;;6.60;2.25;;;31.10;45.90;;;;;;6925030;28;20211;-78
2022/06/16 15:11:04;;;;;;;4.07;2.25;;;31.20;46.40;;;;;;6876588;28;20057;-77
2022/06/16 15:14:30;;;;;;;6.35;2.20;;;31.20;47.10;;;;;;6918440;28;20054;-80
2022/06/16 15:18:13;;;;;;;8.50;3.50;;;31.20;47.10;;;;;;6944380;28;20037;-78
2022/06/16 15:21:36;;;;;;;7.38;2.30;;;31.30;47.40;;;;;;6915574;28;20546;-79
2022/06/16 15:25:01;;;;;;;5.82;2.63;;;31.20;45.90;;;;;;6916034;28;20046;-79
2022/06/16 15:28:27;;;;;;;5.75;2.38;;;31.20;45.60;;;;;;6915140;28;20115;-78
2022/06/16 15:31:56;;;;;;;5.88;2.40;;;31.30;44.60;;;;;;6916141;28;20467;-79
2022/06/16 15:39:00;;;;;;;5.18;2.60;;;31.40;45.30;;;;;;6942112;28;20053;-78
2022/06/16 15:42:25;;;;;;;6.75;2.33;;;31.40;46.20;;;;;;6915461;28;20057;-78
2022/06/16 15:45:51;;;;;;;5.70;2.30;;;31.30;46.20;;;;;;6914923;28;20132;-81
2022/06/16 15:49:21;;;;;;;5.55;2.47;;;31.60;46.60;;;;;;6901903;28;20401;-77
2022/06/16 15:52:48;;;;;;;5.82;2.60;;;31.80;46.20;;;;;;6921286;28;20497;-77
2022/06/16 15:56:12;;;;;;;4.40;2.30;;;32.00;46.00;;;;;;6918367;28;20507;-79
2022/06/16 15:59:51;;;;;;;5.68;2.20;;;32.40;44.90;;;;;;6931495;28;20082;-80
2022/06/16 16:03:20;;;;;;;5.78;2.60;;;33.40;44.60;;;;;;6928075;28;20145;-80
2022/06/16 16:06:47;;;;;;;6.30;2.42;;;33.10;45.10;;;;;;6941565;28;20045;-78
2022/06/16 16:10:16;;;;;;;6.05;2.40;;;32.60;43.80;;;;;;6926616;28;20049;-78
2022/06/16 16:13:57;;;;;;;6.45;2.65;;;32.20;44.60;;;;;;6913361;28;20058;-77
2022/06/16 16:17:20;;;;;;;5.95;2.50;;;32.30;45.00;;;;;;6892276;28;20061;-77
2022/06/16 16:20:53;;;;;;;7.40;2.80;;;32.30;45.90;;;;;;6909637;28;20108;-78
2022/06/16 16:24:25;;;;;;;4.22;2.30;;;32.00;46.00;;;;;;6907577;28;20042;-78
2022/06/16 16:27:51;;;;;;;5.18;2.67;;;32.30;45.10;;;;;;6916615;28;20048;-76
2022/06/16 16:31:17;;;;;;;7.00;2.78;;;32.50;45.80;;;;;;6919121;28;20088;-78
2022/06/16 16:34:48;;;;;;;5.65;2.65;;;32.60;46.00;;;;;;6918691;28;20054;-80
2022/06/16 16:38:31;;;;;;;5.75;2.50;;;32.60;45.80;;;;;;6944711;28;20139;-78
2022/06/16 16:46:19;;;;;;;5.00;2.80;;;32.10;46.30;;;;;;6918526;28;20054;-77
2022/06/16 16:49:58;;;;;;;4.70;2.40;;;32.20;45.40;;;;;;6908750;28;20084;-76
2022/06/16 16:53:28;;;;;;;4.93;2.50;;;32.20;45.50;;;;;;6911611;28;20499;-77
2022/06/16 16:56:50;;;;;;;7.20;2.40;;;32.10;46.30;;;;;;6903232;28;20042;-78
2022/06/16 17:00:18;;;;;;;5.07;2.60;;;32.20;45.10;;;;;;6915594;28;20500;-79
2022/06/16 17:03:40;;;;;;;4.13;2.47;;;32.20;45.30;;;;;;6916209;28;20045;-79
2022/06/16 17:07:02;;;;;;;3.97;2.42;;;32.20;45.10;;;;;;6917735;28;20080;-78
2022/06/16 17:10:24;;;;;;;6.32;3.10;;;32.20;45.00;;;;;;6919463;28;20085;-77
2022/06/16 17:13:46;;;;;;;10.15;5.72;;;32.30;44.30;;;;;;6919354;28;20139;-78
2022/06/16 17:17:12;;;;;;;6.00;2.58;;;32.10;45.60;;;;;;6917796;28;20045;-78
2022/06/16 17:20:36;;;;;;;4.13;2.60;;;32.10;44.60;;;;;;6919351;28;20050;-80
2022/06/16 17:23:58;;;;;;;7.38;2.55;;;32.10;45.20;;;;;;6919089;28;20093;-79
2022/06/16 17:27:20;;;;;;;6.38;2.47;;;32.10;45.10;;;;;;6912605;28;20049;-80
2022/06/16 17:30:43;;;;;;;5.35;2.35;;;31.90;45.00;;;;;;6892863;28;20046;-79
2022/06/16 17:34:12;;;;;;;5.50;2.58;;;31.70;43.90;;;;;;6900098;28;20041;-79
2022/06/16 17:37:39;;;;;;;4.55;2.33;;;31.50;45.00;;;;;;6895659;28;20038;-79
2022/06/16 17:41:01;;;;;;;4.40;2.10;;;31.40;44.60;;;;;;6917907;28;20084;-78
2022/06/16 17:44:24;;;;;;;4.95;2.13;;;31.30;44.50;;;;;;6916736;28;20092;-76
2022/06/16 17:47:46;;;;;;;7.00;2.20;;;31.10;45.10;;;;;;6916540;28;20085;-78
2022/06/16 17:51:16;;;;;;;5.50;2.45;;;31.10;44.40;;;;;;6918115;28;20038;-77
2022/06/16 18:02:01;;;;;;;5.35;2.20;;;31.10;42.40;;;;;;6945343;28;20042;-76
2022/06/16 18:05:23;;;;;;;3.83;2.17;;;31.10;42.60;;;;;;6910152;28;20508;-78
2022/06/16 18:08:51;;;;;;;4.57;1.80;;;31.10;42.80;;;;;;6910288;28;20105;-77
2022/06/16 18:12:17;;;;;;;6.15;1.90;;;30.80;43.00;;;;;;6907145;28;20139;-76
2022/06/16 18:15:39;;;;;;;5.53;2.20;;;30.90;43.00;;;;;;6912036;28;20068;-77
2022/06/16 18:19:02;;;;;;;7.90;2.20;;;30.80;42.10;;;;;;6905733;28;20405;-76
2022/06/16 18:22:28;;;;;;;5.82;1.77;;;30.60;42.00;;;;;;6917003;28;20045;-77
2022/06/16 18:25:55;;;;;;;4.40;1.73;;;30.40;41.40;;;;;;6915797;28;20053;-78
2022/06/16 18:29:17;;;;;;;4.43;1.95;;;30.20;41.60;;;;;;6901747;28;20050;-77
2022/06/16 18:32:40;;;;;;;4.10;1.70;;;30.10;41.60;;;;;;6899275;28;20053;-78
2022/06/16 18:36:02;;;;;;;6.25;2.92;;;30.00;41.30;;;;;;6912086;28;20056;-75
2022/06/16 18:39:24;;;;;;;;;;;30.00;42.10;;;;;;6909595;28;20652;-78
2022/06/16 18:42:47;;;;;;;6.05;1.98;;;29.80;41.30;;;;;;6894113;28;19928;-78